sensor_id;sensor_type;location;lat;lon;timestamp;temperature;humidity
20885;DHT22;10602;48.000;9.654;2023-04-25T06:29:52;9.00;1.00
20885;DHT22;10602;48.000;9.654;2023-04-25T06:32:20;9.20;99.90
20885;DHT22;10602;48.000;9.654;2023-04-25T06:34:47;9.20;1.00
20885;DHT22;10602;48.000;9.654;2023-04-25T06:37:15;9.20;99.90
20885;DHT22;10602;48.000;9.654;2023-04-25T06:39:42;9.20;99.90
20885;DHT22;10602;48.000;9.654;2023-04-25T06:42:10;9.00;99.90
20885;DHT22;10602;48.000;9.654;2023-04-25T06:44:37;9.10;99.90
20885;DHT22;10602;48.000;9.654;2023-04-25T06:47:05;9.50;96.70
20885;DHT22;10602;48.000;9.654;2023-04-25T06:49:32;9.60;17.40
20885;DHT22;10602;48.000;9.654;2023-04-25T06:52:00;9.70;1.00
20885;DHT22;10602;48.000;9.654;2023-04-25T06:54:27;10.10;1.00
20885;DHT22;10602;48.000;9.654;2023-04-25T06:56:56;10.30;1.00
20885;DHT22;10602;48.000;9.654;2023-04-25T06:59:24;10.70;1.00
20885;DHT22;10602;48.000;9.654;2023-04-25T07:01:51;10.90;1.00
20885;DHT22;10602;48.000;9.654;2023-04-25T07:04:19;10.60;1.00
20885;DHT22;10602;48.000;9.654;2023-04-25T07:06:46;10.70;1.00
20885;DHT22;10602;48.000;9.654;2023-04-25T07:09:16;10.60;1.00
20885;DHT22;10602;48.000;9.654;2023-04-25T07:11:43;10.40;1.00
20885;DHT22;10602;48.000;9.654;2023-04-25T07:14:11;9.70;1.00
20885;DHT22;10602;48.000;9.654;2023-04-25T07:16:38;10.40;1.00
20885;DHT22;10602;48.000;9.654;2023-04-25T07:19:09;10.30;1.00
20885;DHT22;10602;48.000;9.654;2023-04-25T07:21:38;10.50;1.00
20885;DHT22;10602;48.000;9.654;2023-04-25T07:24:06;10.40;99.90
20885;DHT22;10602;48.000;9.654;2023-04-25T07:26:34;10.10;1.00
20885;DHT22;10602;48.000;9.654;2023-04-25T07:29:02;10.10;1.00
20885;DHT22;10602;48.000;9.654;2023-04-25T07:31:29;10.50;1.00
20885;DHT22;10602;48.000;9.654;2023-04-25T07:33:57;10.80;1.00
20885;DHT22;10602;48.000;9.654;2023-04-25T07:36:24;10.90;99.90
20885;DHT22;10602;48.000;9.654;2023-04-25T07:38:52;10.90;99.90
20885;DHT22;10602;48.000;9.654;2023-04-25T07:41:20;10.90;99.90
20885;DHT22;10602;48.000;9.654;2023-04-25T07:43:48;10.90;99.90
20885;DHT22;10602;48.000;9.654;2023-04-25T07:46:16;10.50;1.00
20885;DHT22;10602;48.000;9.654;2023-04-25T07:48:43;10.50;1.00
20885;DHT22;10602;48.000;9.654;2023-04-25T07:51:10;10.40;1.00
20885;DHT22;10602;48.000;9.654;2023-04-25T07:53:38;10.50;1.00
20885;DHT22;10602;48.000;9.654;2023-04-25T07:56:07;10.50;1.00
20885;DHT22;10602;48.000;9.654;2023-04-25T07:58:35;10.40;1.00
20885;DHT22;10602;48.000;9.654;2023-04-25T08:01:03;10.60;99.90
20885;DHT22;10602;48.000;9.654;2023-04-25T08:03:30;10.20;1.00
20885;DHT22;10602;48.000;9.654;2023-04-25T08:05:58;9.90;1.00
20885;DHT22;10602;48.000;9.654;2023-04-25T08:08:25;9.80;1.00
20885;DHT22;10602;48.000;9.654;2023-04-25T08:10:53;9.90;1.00
20885;DHT22;10602;48.000;9.654;2023-04-25T08:13:20;10.10;1.00
20885;DHT22;10602;48.000;9.654;2023-04-25T08:15:48;10.20;1.00
20885;DHT22;10602;48.000;9.654;2023-04-25T08:18:15;10.20;1.00
20885;DHT22;10602;48.000;9.654;2023-04-25T08:20:43;10.20;1.00
20885;DHT22;10602;48.000;9.654;2023-04-25T08:23:10;10.00;1.00
20885;DHT22;10602;48.000;9.654;2023-04-25T08:25:38;10.00;99.90
20885;DHT22;10602;48.000;9.654;2023-04-25T08:28:06;9.80;1.00
20885;DHT22;10602;48.000;9.654;2023-04-25T08:30:33;9.60;99.90
20885;DHT22;10602;48.000;9.654;2023-04-25T08:33:01;9.30;1.00
20885;DHT22;10602;48.000;9.654;2023-04-25T08:35:29;8.90;1.00
20885;DHT22;10602;48.000;9.654;2023-04-25T08:40:26;8.00;1.00
20885;DHT22;10602;48.000;9.654;2023-04-25T08:42:57;7.50;1.00
20885;DHT22;10602;48.000;9.654;2023-04-25T08:45:27;7.10;57.90
20885;DHT22;10602;48.000;9.654;2023-04-25T08:47:57;6.70;61.90
20885;DHT22;10602;48.000;9.654;2023-04-25T10:44:28;6.60;81.10
20885;DHT22;10602;48.000;9.654;2023-04-25T10:52:34;7.00;94.60
20885;DHT22;10602;48.000;9.654;2023-04-25T10:54:51;7.20;92.60
20885;DHT22;10602;48.000;9.654;2023-04-25T10:57:41;7.30;94.90
20885;DHT22;10602;48.000;9.654;2023-04-25T20:05:56;6.20;99.90
20885;DHT22;10602;48.000;9.654;2023-04-25T20:08:24;6.00;99.90
20885;DHT22;10602;48.000;9.654;2023-04-25T20:10:52;6.20;99.90
20885;DHT22;10602;48.000;9.654;2023-04-25T20:13:19;6.30;99.90
20885;DHT22;10602;48.000;9.654;2023-04-25T20:15:47;6.20;99.90
20885;DHT22;10602;48.000;9.654;2023-04-25T20:18:14;6.10;99.90
20885;DHT22;10602;48.000;9.654;2023-04-25T20:20:42;6.20;99.90
20885;DHT22;10602;48.000;9.654;2023-04-25T20:23:09;6.10;99.90
20885;DHT22;10602;48.000;9.654;2023-04-25T20:25:37;6.10;99.90
20885;DHT22;10602;48.000;9.654;2023-04-25T20:28:05;6.20;99.90
20885;DHT22;10602;48.000;9.654;2023-04-25T20:30:32;6.10;99.90
20885;DHT22;10602;48.000;9.654;2023-04-25T20:33:00;6.10;99.90
20885;DHT22;10602;48.000;9.654;2023-04-25T20:35:28;6.20;99.90
20885;DHT22;10602;48.000;9.654;2023-04-25T20:37:57;6.20;99.90
20885;DHT22;10602;48.000;9.654;2023-04-25T20:40:27;6.10;99.90
20885;DHT22;10602;48.000;9.654;2023-04-25T20:42:58;6.20;99.90
20885;DHT22;10602;48.000;9.654;2023-04-25T20:45:27;6.10;99.90
20885;DHT22;10602;48.000;9.654;2023-04-25T20:47:56;6.20;99.90
20885;DHT22;10602;48.000;9.654;2023-04-25T20:50:24;6.10;99.90
20885;DHT22;10602;48.000;9.654;2023-04-25T20:52:52;6.10;99.90
20885;DHT22;10602;48.000;9.654;2023-04-25T20:55:19;6.20;99.90
20885;DHT22;10602;48.000;9.654;2023-04-25T20:57:47;6.20;99.90
20885;DHT22;10602;48.000;9.654;2023-04-25T21:00:15;6.20;99.90
20885;DHT22;10602;48.000;9.654;2023-04-25T21:02:44;6.10;99.90
20885;DHT22;10602;48.000;9.654;2023-04-25T21:05:12;6.10;99.90
20885;DHT22;10602;48.000;9.654;2023-04-25T21:07:40;6.00;99.90
20885;DHT22;10602;48.000;9.654;2023-04-25T21:10:08;6.00;99.90
20885;DHT22;10602;48.000;9.654;2023-04-25T21:12:36;6.00;99.90
20885;DHT22;10602;48.000;9.654;2023-04-25T21:15:06;6.00;99.90
20885;DHT22;10602;48.000;9.654;2023-04-25T21:17:34;6.10;99.90
20885;DHT22;10602;48.000;9.654;2023-04-25T21:20:01;6.10;99.90
20885;DHT22;10602;48.000;9.654;2023-04-25T21:22:30;6.10;99.90
20885;DHT22;10602;48.000;9.654;2023-04-25T21:24:59;6.20;99.90
20885;DHT22;10602;48.000;9.654;2023-04-25T21:27:28;6.20;99.90
20885;DHT22;10602;48.000;9.654;2023-04-25T21:29:56;6.30;99.90
20885;DHT22;10602;48.000;9.654;2023-04-25T21:32:24;6.20;99.90
20885;DHT22;10602;48.000;9.654;2023-04-25T21:34:51;6.20;99.90
20885;DHT22;10602;48.000;9.654;2023-04-25T21:37:19;6.10;99.90
20885;DHT22;10602;48.000;9.654;2023-04-25T21:39:46;6.00;99.90
20885;DHT22;10602;48.000;9.654;2023-04-25T21:42:14;6.00;99.90
20885;DHT22;10602;48.000;9.654;2023-04-25T21:44:42;5.90;99.90
20885;DHT22;10602;48.000;9.654;2023-04-25T21:47:09;5.90;99.90
20885;DHT22;10602;48.000;9.654;2023-04-25T21:49:37;5.90;99.90
20885;DHT22;10602;48.000;9.654;2023-04-25T21:52:05;5.90;99.90
20885;DHT22;10602;48.000;9.654;2023-04-25T21:54:32;5.80;99.90
20885;DHT22;10602;48.000;9.654;2023-04-25T21:57:01;5.80;99.90
20885;DHT22;10602;48.000;9.654;2023-04-25T21:59:29;5.80;99.90
20885;DHT22;10602;48.000;9.654;2023-04-25T22:01:58;5.70;99.90
20885;DHT22;10602;48.000;9.654;2023-04-25T22:04:25;5.70;99.90
20885;DHT22;10602;48.000;9.654;2023-04-25T22:06:53;5.70;99.90
20885;DHT22;10602;48.000;9.654;2023-04-25T22:09:20;5.80;99.90
20885;DHT22;10602;48.000;9.654;2023-04-25T22:11:48;5.80;99.90
20885;DHT22;10602;48.000;9.654;2023-04-25T22:14:22;5.80;99.90
20885;DHT22;10602;48.000;9.654;2023-04-25T22:16:50;5.80;99.90
20885;DHT22;10602;48.000;9.654;2023-04-25T22:19:19;5.80;99.90
20885;DHT22;10602;48.000;9.654;2023-04-25T22:21:47;5.80;99.90
20885;DHT22;10602;48.000;9.654;2023-04-25T22:24:15;5.90;99.90
20885;DHT22;10602;48.000;9.654;2023-04-25T22:26:42;5.80;99.90
20885;DHT22;10602;48.000;9.654;2023-04-25T22:29:10;5.90;99.90
20885;DHT22;10602;48.000;9.654;2023-04-25T22:31:37;5.80;99.90
20885;DHT22;10602;48.000;9.654;2023-04-25T22:34:05;5.80;99.90
20885;DHT22;10602;48.000;9.654;2023-04-25T22:36:33;5.80;99.90
20885;DHT22;10602;48.000;9.654;2023-04-25T22:39:01;5.80;99.90
20885;DHT22;10602;48.000;9.654;2023-04-25T22:41:28;5.80;99.90
20885;DHT22;10602;48.000;9.654;2023-04-25T22:43:56;5.80;99.90
20885;DHT22;10602;48.000;9.654;2023-04-25T22:46:23;5.80;99.90
20885;DHT22;10602;48.000;9.654;2023-04-25T22:48:51;5.90;99.90
20885;DHT22;10602;48.000;9.654;2023-04-25T22:51:19;6.00;99.90
20885;DHT22;10602;48.000;9.654;2023-04-25T22:53:46;6.00;99.90
20885;DHT22;10602;48.000;9.654;2023-04-25T22:56:16;6.00;99.90
20885;DHT22;10602;48.000;9.654;2023-04-25T22:58:44;6.00;99.90
20885;DHT22;10602;48.000;9.654;2023-04-25T23:01:11;6.00;99.90
20885;DHT22;10602;48.000;9.654;2023-04-25T23:03:39;6.10;99.90
20885;DHT22;10602;48.000;9.654;2023-04-25T23:06:06;6.00;99.90
20885;DHT22;10602;48.000;9.654;2023-04-25T23:09:04;6.10;99.90
